sensor_id;sensor_type;location;lat;lon;timestamp;temperature;humidity
69595;DHT22;56800;52.142;5.364;2023-03-23T00:01:53;12.10;81.90
69595;DHT22;56800;52.142;5.364;2023-03-23T00:04:19;12.10;81.90
69595;DHT22;56800;52.142;5.364;2023-03-23T00:06:46;12.10;81.80
69595;DHT22;56800;52.142;5.364;2023-03-23T00:09:15;12.10;81.70
69595;DHT22;56800;52.142;5.364;2023-03-23T00:11:41;12.10;81.70
69595;DHT22;56800;52.142;5.364;2023-03-23T00:14:08;12.10;81.60
69595;DHT22;56800;52.142;5.364;2023-03-23T00:16:40;12.10;81.50
69595;DHT22;56800;52.142;5.364;2023-03-23T00:19:13;12.10;81.50
69595;DHT22;56800;52.142;5.364;2023-03-23T00:21:40;12.10;81.50
69595;DHT22;56800;52.142;5.364;2023-03-23T00:24:18;12.10;81.50
69595;DHT22;56800;52.142;5.364;2023-03-23T00:26:47;12.10;81.40
69595;DHT22;56800;52.142;5.364;2023-03-23T00:29:22;12.10;81.40
69595;DHT22;56800;52.142;5.364;2023-03-23T00:31:49;12.10;81.20
69595;DHT22;56800;52.142;5.364;2023-03-23T00:34:17;12.10;81.20
69595;DHT22;56800;52.142;5.364;2023-03-23T00:36:46;12.10;81.20
69595;DHT22;56800;52.142;5.364;2023-03-23T00:39:12;12.10;81.10
69595;DHT22;56800;52.142;5.364;2023-03-23T00:41:38;12.10;81.00
69595;DHT22;56800;52.142;5.364;2023-03-23T00:44:04;12.10;81.00
69595;DHT22;56800;52.142;5.364;2023-03-23T00:46:30;12.10;81.00
69595;DHT22;56800;52.142;5.364;2023-03-23T00:48:56;12.20;80.90
69595;DHT22;56800;52.142;5.364;2023-03-23T00:51:22;12.10;80.80
69595;DHT22;56800;52.142;5.364;2023-03-23T00:53:48;12.10;80.70
69595;DHT22;56800;52.142;5.364;2023-03-23T00:56:14;12.20;80.60
69595;DHT22;56800;52.142;5.364;2023-03-23T00:58:40;12.20;80.50
69595;DHT22;56800;52.142;5.364;2023-03-23T01:01:06;12.20;80.30
69595;DHT22;56800;52.142;5.364;2023-03-23T01:03:33;12.20;80.30
69595;DHT22;56800;52.142;5.364;2023-03-23T01:06:08;12.20;80.20
69595;DHT22;56800;52.142;5.364;2023-03-23T01:08:38;12.20;80.00
69595;DHT22;56800;52.142;5.364;2023-03-23T01:11:12;12.30;80.10
69595;DHT22;56800;52.142;5.364;2023-03-23T01:13:38;12.30;79.90
69595;DHT22;56800;52.142;5.364;2023-03-23T01:16:03;12.30;80.10
69595;DHT22;56800;52.142;5.364;2023-03-23T01:18:29;12.30;79.70
69595;DHT22;56800;52.142;5.364;2023-03-23T01:20:55;12.30;79.50
69595;DHT22;56800;52.142;5.364;2023-03-23T01:23:20;12.30;79.50
69595;DHT22;56800;52.142;5.364;2023-03-23T01:25:46;12.30;79.50
69595;DHT22;56800;52.142;5.364;2023-03-23T01:28:12;12.30;79.40
69595;DHT22;56800;52.142;5.364;2023-03-23T01:30:37;12.30;79.30
69595;DHT22;56800;52.142;5.364;2023-03-23T01:33:03;12.30;79.30
69595;DHT22;56800;52.142;5.364;2023-03-23T01:35:28;12.30;79.30
69595;DHT22;56800;52.142;5.364;2023-03-23T01:37:54;12.30;79.20
69595;DHT22;56800;52.142;5.364;2023-03-23T01:40:20;12.30;79.10
69595;DHT22;56800;52.142;5.364;2023-03-23T01:42:46;12.30;79.10
69595;DHT22;56800;52.142;5.364;2023-03-23T01:45:23;12.40;78.80
69595;DHT22;56800;52.142;5.364;2023-03-23T01:47:57;12.40;78.80
69595;DHT22;56800;52.142;5.364;2023-03-23T01:50:26;12.40;78.70
69595;DHT22;56800;52.142;5.364;2023-03-23T01:52:55;12.40;78.60
69595;DHT22;56800;52.142;5.364;2023-03-23T01:55:25;12.40;78.40
69595;DHT22;56800;52.142;5.364;2023-03-23T01:57:52;12.40;78.50
69595;DHT22;56800;52.142;5.364;2023-03-23T02:00:19;12.40;78.50
69595;DHT22;56800;52.142;5.364;2023-03-23T02:02:48;12.40;78.40
69595;DHT22;56800;52.142;5.364;2023-03-23T02:05:40;12.40;78.40
69595;DHT22;56800;52.142;5.364;2023-03-23T02:08:06;12.40;78.40
69595;DHT22;56800;52.142;5.364;2023-03-23T02:10:35;12.40;78.30
69595;DHT22;56800;52.142;5.364;2023-03-23T02:13:02;12.40;78.30
69595;DHT22;56800;52.142;5.364;2023-03-23T02:15:39;12.40;78.20
69595;DHT22;56800;52.142;5.364;2023-03-23T02:21:03;12.40;78.30
69595;DHT22;56800;52.142;5.364;2023-03-23T02:23:59;12.40;78.30
69595;DHT22;56800;52.142;5.364;2023-03-23T02:26:53;12.40;78.30
69595;DHT22;56800;52.142;5.364;2023-03-23T02:35:00;12.40;78.20
69595;DHT22;56800;52.142;5.364;2023-03-23T02:37:32;12.40;78.20
69595;DHT22;56800;52.142;5.364;2023-03-23T02:40:09;12.40;78.20
69595;DHT22;56800;52.142;5.364;2023-03-23T02:42:39;12.40;78.20
69595;DHT22;56800;52.142;5.364;2023-03-23T02:45:07;12.40;78.20
69595;DHT22;56800;52.142;5.364;2023-03-23T02:47:35;12.40;78.10
69595;DHT22;56800;52.142;5.364;2023-03-23T02:50:04;12.50;78.10
69595;DHT22;56800;52.142;5.364;2023-03-23T02:52:33;12.50;78.10
69595;DHT22;56800;52.142;5.364;2023-03-23T02:55:01;12.50;78.10
69595;DHT22;56800;52.142;5.364;2023-03-23T02:57:27;12.50;78.80
69595;DHT22;56800;52.142;5.364;2023-03-23T02:59:54;12.50;78.00
69595;DHT22;56800;52.142;5.364;2023-03-23T03:02:33;12.50;78.00
69595;DHT22;56800;52.142;5.364;2023-03-23T03:10:04;12.50;77.90
69595;DHT22;56800;52.142;5.364;2023-03-23T03:13:28;12.50;77.90
69595;DHT22;56800;52.142;5.364;2023-03-23T03:15:40;12.50;77.80
69595;DHT22;56800;52.142;5.364;2023-03-23T03:18:11;12.50;77.70
69595;DHT22;56800;52.142;5.364;2023-03-23T03:20:46;12.50;77.70
69595;DHT22;56800;52.142;5.364;2023-03-23T03:23:14;12.50;77.60
69595;DHT22;56800;52.142;5.364;2023-03-23T03:25:41;12.60;77.60
69595;DHT22;56800;52.142;5.364;2023-03-23T03:28:17;12.60;77.50
69595;DHT22;56800;52.142;5.364;2023-03-23T03:30:52;12.60;77.30
69595;DHT22;56800;52.142;5.364;2023-03-23T03:33:20;12.60;77.30
69595;DHT22;56800;52.142;5.364;2023-03-23T03:35:46;12.60;77.10
69595;DHT22;56800;52.142;5.364;2023-03-23T03:38:12;12.60;77.10
69595;DHT22;56800;52.142;5.364;2023-03-23T03:40:38;12.60;77.00
69595;DHT22;56800;52.142;5.364;2023-03-23T03:43:04;12.60;77.00
69595;DHT22;56800;52.142;5.364;2023-03-23T03:45:31;12.60;76.90
69595;DHT22;56800;52.142;5.364;2023-03-23T03:47:57;12.60;76.80
69595;DHT22;56800;52.142;5.364;2023-03-23T03:50:22;12.70;76.80
69595;DHT22;56800;52.142;5.364;2023-03-23T03:52:49;12.60;76.70
69595;DHT22;56800;52.142;5.364;2023-03-23T03:55:14;12.70;76.70
69595;DHT22;56800;52.142;5.364;2023-03-23T03:57:42;12.60;76.60
69595;DHT22;56800;52.142;5.364;2023-03-23T04:00:09;12.70;76.30
69595;DHT22;56800;52.142;5.364;2023-03-23T04:02:46;12.70;76.30
69595;DHT22;56800;52.142;5.364;2023-03-23T04:05:20;12.70;76.40
69595;DHT22;56800;52.142;5.364;2023-03-23T04:07:46;12.70;76.20
69595;DHT22;56800;52.142;5.364;2023-03-23T04:10:15;12.70;76.10
69595;DHT22;56800;52.142;5.364;2023-03-23T04:12:40;12.70;76.10
69595;DHT22;56800;52.142;5.364;2023-03-23T04:15:06;12.70;76.20
69595;DHT22;56800;52.142;5.364;2023-03-23T04:17:34;12.70;76.10
69595;DHT22;56800;52.142;5.364;2023-03-23T04:19:59;12.80;76.10
69595;DHT22;56800;52.142;5.364;2023-03-23T04:22:26;12.80;75.90
69595;DHT22;56800;52.142;5.364;2023-03-23T04:24:57;12.70;75.80
69595;DHT22;56800;52.142;5.364;2023-03-23T04:27:24;12.80;75.80
69595;DHT22;56800;52.142;5.364;2023-03-23T04:29:50;12.80;75.60
69595;DHT22;56800;52.142;5.364;2023-03-23T04:32:16;12.80;75.60
69595;DHT22;56800;52.142;5.364;2023-03-23T04:34:43;12.80;75.50
69595;DHT22;56800;52.142;5.364;2023-03-23T04:37:10;12.80;75.20
69595;DHT22;56800;52.142;5.364;2023-03-23T04:39:35;12.80;75.20
69595;DHT22;56800;52.142;5.364;2023-03-23T04:42:01;12.80;75.20
69595;DHT22;56800;52.142;5.364;2023-03-23T04:44:27;12.80;75.30
69595;DHT22;56800;52.142;5.364;2023-03-23T04:46:53;12.80;75.20
69595;DHT22;56800;52.142;5.364;2023-03-23T04:49:19;12.80;75.10
69595;DHT22;56800;52.142;5.364;2023-03-23T04:51:48;12.80;75.10
69595;DHT22;56800;52.142;5.364;2023-03-23T04:54:14;12.80;74.90
69595;DHT22;56800;52.142;5.364;2023-03-23T04:56:40;12.70;74.80
69595;DHT22;56800;52.142;5.364;2023-03-23T04:59:07;12.80;74.90
69595;DHT22;56800;52.142;5.364;2023-03-23T05:01:33;12.80;74.90
69595;DHT22;56800;52.142;5.364;2023-03-23T05:04:02;12.80;74.90
69595;DHT22;56800;52.142;5.364;2023-03-23T05:06:28;12.80;74.80
69595;DHT22;56800;52.142;5.364;2023-03-23T05:08:53;12.80;74.80
69595;DHT22;56800;52.142;5.364;2023-03-23T05:11:19;12.70;74.80
69595;DHT22;56800;52.142;5.364;2023-03-23T05:13:44;12.70;74.80
69595;DHT22;56800;52.142;5.364;2023-03-23T05:16:10;12.70;74.90
69595;DHT22;56800;52.142;5.364;2023-03-23T05:18:36;12.70;75.10
69595;DHT22;56800;52.142;5.364;2023-03-23T05:21:02;12.70;75.30
69595;DHT22;56800;52.142;5.364;2023-03-23T05:23:29;12.60;75.60
69595;DHT22;56800;52.142;5.364;2023-03-23T05:25:57;12.60;76.80
69595;DHT22;56800;52.142;5.364;2023-03-23T05:28:27;12.50;76.20
69595;DHT22;56800;52.142;5.364;2023-03-23T05:30:53;12.40;76.60
69595;DHT22;56800;52.142;5.364;2023-03-23T05:33:19;12.30;76.90
69595;DHT22;56800;52.142;5.364;2023-03-23T05:35:46;12.30;77.20
69595;DHT22;56800;52.142;5.364;2023-03-23T05:38:13;12.20;77.50
69595;DHT22;56800;52.142;5.364;2023-03-23T05:40:40;12.20;77.80
69595;DHT22;56800;52.142;5.364;2023-03-23T05:43:08;12.20;78.00
69595;DHT22;56800;52.142;5.364;2023-03-23T05:45:34;12.10;78.20
69595;DHT22;56800;52.142;5.364;2023-03-23T05:48:00;12.10;78.40
69595;DHT22;56800;52.142;5.364;2023-03-23T05:50:26;12.10;78.70
69595;DHT22;56800;52.142;5.364;2023-03-23T05:52:54;12.00;78.80
69595;DHT22;56800;52.142;5.364;2023-03-23T05:55:20;12.00;79.00
69595;DHT22;56800;52.142;5.364;2023-03-23T05:57:46;11.90;79.00
69595;DHT22;56800;52.142;5.364;2023-03-23T06:00:12;11.90;79.20
69595;DHT22;56800;52.142;5.364;2023-03-23T06:02:48;11.80;79.40
69595;DHT22;56800;52.142;5.364;2023-03-23T06:05:14;11.90;79.60
69595;DHT22;56800;52.142;5.364;2023-03-23T06:07:41;11.80;79.80
69595;DHT22;56800;52.142;5.364;2023-03-23T06:10:07;11.80;79.90
69595;DHT22;56800;52.142;5.364;2023-03-23T06:12:35;11.80;80.10
69595;DHT22;56800;52.142;5.364;2023-03-23T06:15:01;11.80;80.10
69595;DHT22;56800;52.142;5.364;2023-03-23T06:17:26;11.80;80.10
69595;DHT22;56800;52.142;5.364;2023-03-23T06:19:53;11.70;80.30
69595;DHT22;56800;52.142;5.364;2023-03-23T06:22:18;11.80;80.50
69595;DHT22;56800;52.142;5.364;2023-03-23T06:24:44;11.70;80.50
69595;DHT22;56800;52.142;5.364;2023-03-23T06:27:10;11.70;80.60
69595;DHT22;56800;52.142;5.364;2023-03-23T06:29:36;11.70;80.80
69595;DHT22;56800;52.142;5.364;2023-03-23T06:32:04;11.60;80.80
69595;DHT22;56800;52.142;5.364;2023-03-23T06:34:31;11.60;80.90
69595;DHT22;56800;52.142;5.364;2023-03-23T06:36:58;11.60;81.00
69595;DHT22;56800;52.142;5.364;2023-03-23T06:39:24;11.60;81.10
69595;DHT22;56800;52.142;5.364;2023-03-23T06:41:50;11.60;81.20
69595;DHT22;56800;52.142;5.364;2023-03-23T06:44:16;11.60;81.30
69595;DHT22;56800;52.142;5.364;2023-03-23T06:46:42;11.60;81.40
69595;DHT22;56800;52.142;5.364;2023-03-23T06:49:08;11.60;81.50
69595;DHT22;56800;52.142;5.364;2023-03-23T06:51:35;11.60;81.60
69595;DHT22;56800;52.142;5.364;2023-03-23T06:54:02;11.60;81.60
69595;DHT22;56800;52.142;5.364;2023-03-23T06:56:28;11.60;81.70
69595;DHT22;56800;52.142;5.364;2023-03-23T06:58:55;11.60;81.70
69595;DHT22;56800;52.142;5.364;2023-03-23T07:01:21;11.60;81.80
69595;DHT22;56800;52.142;5.364;2023-03-23T07:03:47;11.60;81.90
69595;DHT22;56800;52.142;5.364;2023-03-23T07:06:14;11.50;82.00
69595;DHT22;56800;52.142;5.364;2023-03-23T07:08:39;11.50;82.10
69595;DHT22;56800;52.142;5.364;2023-03-23T07:11:05;11.50;82.20
69595;DHT22;56800;52.142;5.364;2023-03-23T07:13:31;11.50;82.30
69595;DHT22;56800;52.142;5.364;2023-03-23T07:15:57;11.50;82.30
69595;DHT22;56800;52.142;5.364;2023-03-23T07:18:24;11.50;82.30
69595;DHT22;56800;52.142;5.364;2023-03-23T07:20:50;11.60;82.50
69595;DHT22;56800;52.142;5.364;2023-03-23T07:23:17;11.60;82.60
69595;DHT22;56800;52.142;5.364;2023-03-23T07:25:44;11.60;82.60
69595;DHT22;56800;52.142;5.364;2023-03-23T07:28:11;11.60;82.50
69595;DHT22;56800;52.142;5.364;2023-03-23T07:30:37;11.50;82.40
69595;DHT22;56800;52.142;5.364;2023-03-23T07:33:07;11.60;82.50
69595;DHT22;56800;52.142;5.364;2023-03-23T07:35:33;11.60;82.60
69595;DHT22;56800;52.142;5.364;2023-03-23T07:38:00;11.60;82.70
69595;DHT22;56800;52.142;5.364;2023-03-23T07:40:26;11.60;82.70
69595;DHT22;56800;52.142;5.364;2023-03-23T07:42:56;11.70;82.70
69595;DHT22;56800;52.142;5.364;2023-03-23T07:45:23;11.70;82.60
69595;DHT22;56800;52.142;5.364;2023-03-23T07:47:49;11.70;82.60
69595;DHT22;56800;52.142;5.364;2023-03-23T07:50:15;11.80;82.70
69595;DHT22;56800;52.142;5.364;2023-03-23T07:52:41;11.80;82.50
69595;DHT22;56800;52.142;5.364;2023-03-23T07:55:09;11.90;82.60
69595;DHT22;56800;52.142;5.364;2023-03-23T07:57:37;11.90;82.40
69595;DHT22;56800;52.142;5.364;2023-03-23T08:00:04;11.90;82.30
69595;DHT22;56800;52.142;5.364;2023-03-23T08:02:39;11.90;82.30
69595;DHT22;56800;52.142;5.364;2023-03-23T08:05:05;11.90;82.40
69595;DHT22;56800;52.142;5.364;2023-03-23T08:07:30;11.90;82.40
69595;DHT22;56800;52.142;5.364;2023-03-23T08:09:56;12.00;82.20
69595;DHT22;56800;52.142;5.364;2023-03-23T08:12:21;12.00;82.20
69595;DHT22;56800;52.142;5.364;2023-03-23T08:14:47;12.00;82.20
69595;DHT22;56800;52.142;5.364;2023-03-23T08:17:13;12.10;82.00
69595;DHT22;56800;52.142;5.364;2023-03-23T08:19:39;12.10;81.90
69595;DHT22;56800;52.142;5.364;2023-03-23T08:22:05;12.00;81.80
69595;DHT22;56800;52.142;5.364;2023-03-23T08:24:32;12.10;81.80
69595;DHT22;56800;52.142;5.364;2023-03-23T08:27:01;12.10;81.90
69595;DHT22;56800;52.142;5.364;2023-03-23T08:29:26;12.10;82.10
69595;DHT22;56800;52.142;5.364;2023-03-23T08:31:52;12.20;81.80
69595;DHT22;56800;52.142;5.364;2023-03-23T08:34:19;12.30;81.80
69595;DHT22;56800;52.142;5.364;2023-03-23T08:36:44;12.50;82.20
69595;DHT22;56800;52.142;5.364;2023-03-23T08:39:12;12.60;82.30
69595;DHT22;56800;52.142;5.364;2023-03-23T08:41:38;12.80;81.30
69595;DHT22;56800;52.142;5.364;2023-03-23T08:44:04;12.80;80.90
69595;DHT22;56800;52.142;5.364;2023-03-23T08:46:29;12.90;80.70
69595;DHT22;56800;52.142;5.364;2023-03-23T08:48:55;13.10;81.40
69595;DHT22;56800;52.142;5.364;2023-03-23T08:51:21;13.20;80.20
69595;DHT22;56800;52.142;5.364;2023-03-23T08:53:47;13.10;79.50
69595;DHT22;56800;52.142;5.364;2023-03-23T08:56:12;13.10;79.20
69595;DHT22;56800;52.142;5.364;2023-03-23T08:58:39;13.00;79.20
69595;DHT22;56800;52.142;5.364;2023-03-23T09:01:06;13.00;80.30
69595;DHT22;56800;52.142;5.364;2023-03-23T09:03:33;13.20;79.50
69595;DHT22;56800;52.142;5.364;2023-03-23T09:06:01;13.40;80.50
69595;DHT22;56800;52.142;5.364;2023-03-23T09:08:28;13.80;79.30
69595;DHT22;56800;52.142;5.364;2023-03-23T09:10:58;14.30;78.70
69595;DHT22;56800;52.142;5.364;2023-03-23T09:13:24;14.70;77.40
69595;DHT22;56800;52.142;5.364;2023-03-23T09:15:49;15.30;76.70
69595;DHT22;56800;52.142;5.364;2023-03-23T09:18:16;15.80;76.00
69595;DHT22;56800;52.142;5.364;2023-03-23T09:20:42;16.40;72.20
69595;DHT22;56800;52.142;5.364;2023-03-23T09:23:09;16.20;70.90
69595;DHT22;56800;52.142;5.364;2023-03-23T09:25:35;16.00;71.70
69595;DHT22;56800;52.142;5.364;2023-03-23T09:28:01;15.70;71.40
69595;DHT22;56800;52.142;5.364;2023-03-23T09:30:29;15.40;72.40
69595;DHT22;56800;52.142;5.364;2023-03-23T09:32:56;15.50;73.00
69595;DHT22;56800;52.142;5.364;2023-03-23T09:35:22;15.40;72.50
69595;DHT22;56800;52.142;5.364;2023-03-23T09:37:49;15.30;72.60
69595;DHT22;56800;52.142;5.364;2023-03-23T09:40:21;15.10;71.60
69595;DHT22;56800;52.142;5.364;2023-03-23T09:43:29;15.00;71.70
69595;DHT22;56800;52.142;5.364;2023-03-23T09:54:36;15.30;71.60
69595;DHT22;56800;52.142;5.364;2023-03-23T09:57:03;15.10;70.80
69595;DHT22;56800;52.142;5.364;2023-03-23T10:02:17;15.00;71.00
69595;DHT22;56800;52.142;5.364;2023-03-23T10:07:15;14.90;71.20
69595;DHT22;56800;52.142;5.364;2023-03-23T10:09:43;15.00;71.50
69595;DHT22;56800;52.142;5.364;2023-03-23T10:12:21;15.00;70.50
69595;DHT22;56800;52.142;5.364;2023-03-23T10:15:12;14.90;70.40
69595;DHT22;56800;52.142;5.364;2023-03-23T10:23:12;15.10;70.10
69595;DHT22;56800;52.142;5.364;2023-03-23T10:25:42;15.20;69.50
69595;DHT22;56800;52.142;5.364;2023-03-23T10:28:14;15.20;69.60
69595;DHT22;56800;52.142;5.364;2023-03-23T10:30:45;15.40;69.40
69595;DHT22;56800;52.142;5.364;2023-03-23T10:33:16;15.50;68.30
69595;DHT22;56800;52.142;5.364;2023-03-23T10:36:03;15.60;69.30
69595;DHT22;56800;52.142;5.364;2023-03-23T10:38:35;15.80;69.00
69595;DHT22;56800;52.142;5.364;2023-03-23T10:41:20;16.00;68.40
69595;DHT22;56800;52.142;5.364;2023-03-23T10:43:46;16.00;66.80
69595;DHT22;56800;52.142;5.364;2023-03-23T10:48:53;15.80;66.20
69595;DHT22;56800;52.142;5.364;2023-03-23T10:51:28;15.70;66.30
69595;DHT22;56800;52.142;5.364;2023-03-23T10:54:00;15.70;65.90
69595;DHT22;56800;52.142;5.364;2023-03-23T10:56:39;15.70;66.10
69595;DHT22;56800;52.142;5.364;2023-03-23T10:59:18;15.80;66.80
69595;DHT22;56800;52.142;5.364;2023-03-23T11:01:49;15.90;66.60
69595;DHT22;56800;52.142;5.364;2023-03-23T11:04:16;16.00;66.50
69595;DHT22;56800;52.142;5.364;2023-03-23T11:06:48;16.00;65.80
69595;DHT22;56800;52.142;5.364;2023-03-23T11:09:20;15.90;65.10
69595;DHT22;56800;52.142;5.364;2023-03-23T11:11:54;15.80;65.30
69595;DHT22;56800;52.142;5.364;2023-03-23T11:17:01;15.70;65.20
69595;DHT22;56800;52.142;5.364;2023-03-23T11:19:37;15.70;64.70
69595;DHT22;56800;52.142;5.364;2023-03-23T11:22:15;15.50;63.90
69595;DHT22;56800;52.142;5.364;2023-03-23T11:24:45;15.40;64.20
69595;DHT22;56800;52.142;5.364;2023-03-23T11:27:13;15.20;64.00
69595;DHT22;56800;52.142;5.364;2023-03-23T11:29:55;15.20;64.80
69595;DHT22;56800;52.142;5.364;2023-03-23T11:32:27;15.20;65.30
69595;DHT22;56800;52.142;5.364;2023-03-23T11:34:58;15.30;65.20
69595;DHT22;56800;52.142;5.364;2023-03-23T11:37:45;15.40;65.20
69595;DHT22;56800;52.142;5.364;2023-03-23T11:40:19;15.50;64.70
69595;DHT22;56800;52.142;5.364;2023-03-23T11:43:00;15.60;63.70
69595;DHT22;56800;52.142;5.364;2023-03-23T11:45:41;15.70;64.40
69595;DHT22;56800;52.142;5.364;2023-03-23T11:48:35;15.90;64.20
69595;DHT22;56800;52.142;5.364;2023-03-23T11:54:15;16.00;64.00
69595;DHT22;56800;52.142;5.364;2023-03-23T11:56:43;16.00;63.90
69595;DHT22;56800;52.142;5.364;2023-03-23T11:59:13;15.90;63.40
69595;DHT22;56800;52.142;5.364;2023-03-23T12:01:47;15.80;63.50
69595;DHT22;56800;52.142;5.364;2023-03-23T12:15:34;15.80;65.70
69595;DHT22;56800;52.142;5.364;2023-03-23T12:23:24;16.00;65.60
69595;DHT22;56800;52.142;5.364;2023-03-23T12:26:17;16.10;65.30
69595;DHT22;56800;52.142;5.364;2023-03-23T12:29:21;16.00;64.70
69595;DHT22;56800;52.142;5.364;2023-03-23T12:40:54;15.60;64.60
69595;DHT22;56800;52.142;5.364;2023-03-23T12:49:08;15.30;65.30
69595;DHT22;56800;52.142;5.364;2023-03-23T12:51:42;15.30;65.50
69595;DHT22;56800;52.142;5.364;2023-03-23T12:56:58;15.30;65.40
69595;DHT22;56800;52.142;5.364;2023-03-23T13:02:23;15.30;65.50
69595;DHT22;56800;52.142;5.364;2023-03-23T13:05:06;15.40;66.00
69595;DHT22;56800;52.142;5.364;2023-03-23T13:07:40;15.70;66.50
69595;DHT22;56800;52.142;5.364;2023-03-23T13:10:22;15.80;65.80
69595;DHT22;56800;52.142;5.364;2023-03-23T13:12:50;16.00;65.90
69595;DHT22;56800;52.142;5.364;2023-03-23T13:15:42;16.30;65.30
69595;DHT22;56800;52.142;5.364;2023-03-23T13:23:37;16.50;63.70
69595;DHT22;56800;52.142;5.364;2023-03-23T13:26:20;16.70;63.30
69595;DHT22;56800;52.142;5.364;2023-03-23T13:29:43;17.00;63.40
69595;DHT22;56800;52.142;5.364;2023-03-23T13:31:46;17.30;63.20
69595;DHT22;56800;52.142;5.364;2023-03-23T13:34:20;17.30;62.00
69595;DHT22;56800;52.142;5.364;2023-03-23T13:37:02;17.30;61.50
69595;DHT22;56800;52.142;5.364;2023-03-23T13:39:37;17.20;60.80
69595;DHT22;56800;52.142;5.364;2023-03-23T13:44:54;16.90;60.80
69595;DHT22;56800;52.142;5.364;2023-03-23T13:50:08;16.70;60.90
69595;DHT22;56800;52.142;5.364;2023-03-23T14:03:03;16.20;62.40
69595;DHT22;56800;52.142;5.364;2023-03-23T14:06:21;16.10;63.10
69595;DHT22;56800;52.142;5.364;2023-03-23T14:11:13;16.10;63.20
69595;DHT22;56800;52.142;5.364;2023-03-23T14:13:57;16.00;63.40
69595;DHT22;56800;52.142;5.364;2023-03-23T14:16:26;15.70;64.60
69595;DHT22;56800;52.142;5.364;2023-03-23T14:19:00;15.30;66.00
69595;DHT22;56800;52.142;5.364;2023-03-23T14:21:34;15.00;67.20
69595;DHT22;56800;52.142;5.364;2023-03-23T14:24:43;14.80;68.10
69595;DHT22;56800;52.142;5.364;2023-03-23T14:26:52;14.60;69.00
69595;DHT22;56800;52.142;5.364;2023-03-23T14:29:19;14.60;70.10
69595;DHT22;56800;52.142;5.364;2023-03-23T14:31:52;14.70;70.70
69595;DHT22;56800;52.142;5.364;2023-03-23T14:34:21;14.70;71.00
69595;DHT22;56800;52.142;5.364;2023-03-23T14:36:47;14.70;71.30
69595;DHT22;56800;52.142;5.364;2023-03-23T14:39:29;14.70;71.60
69595;DHT22;56800;52.142;5.364;2023-03-23T14:42:01;14.70;72.20
69595;DHT22;56800;52.142;5.364;2023-03-23T14:44:34;14.80;72.60
69595;DHT22;56800;52.142;5.364;2023-03-23T14:47:04;14.90;72.60
69595;DHT22;56800;52.142;5.364;2023-03-23T14:49:35;15.00;72.80
69595;DHT22;56800;52.142;5.364;2023-03-23T14:52:17;15.00;72.50
69595;DHT22;56800;52.142;5.364;2023-03-23T14:54:45;15.00;72.10
69595;DHT22;56800;52.142;5.364;2023-03-23T14:59:46;15.10;72.50
69595;DHT22;56800;52.142;5.364;2023-03-23T15:02:20;15.20;72.80
69595;DHT22;56800;52.142;5.364;2023-03-23T15:04:50;15.20;71.80
69595;DHT22;56800;52.142;5.364;2023-03-23T15:07:17;15.20;71.30
69595;DHT22;56800;52.142;5.364;2023-03-23T15:09:44;15.30;71.00
69595;DHT22;56800;52.142;5.364;2023-03-23T15:12:31;15.40;70.30
69595;DHT22;56800;52.142;5.364;2023-03-23T15:15:00;15.40;70.30
69595;DHT22;56800;52.142;5.364;2023-03-23T15:17:30;15.50;70.20
69595;DHT22;56800;52.142;5.364;2023-03-23T15:19:57;15.60;69.90
69595;DHT22;56800;52.142;5.364;2023-03-23T15:22:28;15.70;69.10
69595;DHT22;56800;52.142;5.364;2023-03-23T15:27:41;15.70;67.70
69595;DHT22;56800;52.142;5.364;2023-03-23T15:32:51;15.70;67.00
69595;DHT22;56800;52.142;5.364;2023-03-23T15:35:23;15.70;66.80
69595;DHT22;56800;52.142;5.364;2023-03-23T15:37:52;15.70;66.70
69595;DHT22;56800;52.142;5.364;2023-03-23T15:40:21;15.70;66.60
69595;DHT22;56800;52.142;5.364;2023-03-23T15:42:48;15.70;66.70
69595;DHT22;56800;52.142;5.364;2023-03-23T15:45:27;15.60;66.80
69595;DHT22;56800;52.142;5.364;2023-03-23T15:47:53;15.60;66.20
69595;DHT22;56800;52.142;5.364;2023-03-23T15:52:47;15.60;66.60
69595;DHT22;56800;52.142;5.364;2023-03-23T15:55:26;15.60;66.30
69595;DHT22;56800;52.142;5.364;2023-03-23T15:57:54;15.50;66.30
69595;DHT22;56800;52.142;5.364;2023-03-23T16:00:24;15.50;66.50
69595;DHT22;56800;52.142;5.364;2023-03-23T16:03:00;15.50;66.60
69595;DHT22;56800;52.142;5.364;2023-03-23T16:05:27;15.40;66.50
69595;DHT22;56800;52.142;5.364;2023-03-23T16:07:54;15.50;67.00
69595;DHT22;56800;52.142;5.364;2023-03-23T16:10:23;15.50;66.60
69595;DHT22;56800;52.142;5.364;2023-03-23T16:12:50;15.60;66.40
69595;DHT22;56800;52.142;5.364;2023-03-23T16:15:18;15.60;66.10
69595;DHT22;56800;52.142;5.364;2023-03-23T16:17:45;15.60;65.70
69595;DHT22;56800;52.142;5.364;2023-03-23T16:20:20;15.60;66.00
69595;DHT22;56800;52.142;5.364;2023-03-23T16:22:49;15.60;65.40
69595;DHT22;56800;52.142;5.364;2023-03-23T16:25:17;15.50;65.30
69595;DHT22;56800;52.142;5.364;2023-03-23T16:27:44;15.50;65.60
69595;DHT22;56800;52.142;5.364;2023-03-23T16:30:23;15.40;65.50
69595;DHT22;56800;52.142;5.364;2023-03-23T16:32:51;15.30;65.60
69595;DHT22;56800;52.142;5.364;2023-03-23T16:35:22;15.30;65.80
69595;DHT22;56800;52.142;5.364;2023-03-23T16:37:51;15.30;66.00
69595;DHT22;56800;52.142;5.364;2023-03-23T16:40:35;15.20;66.20
69595;DHT22;56800;52.142;5.364;2023-03-23T16:43:02;15.30;66.50
69595;DHT22;56800;52.142;5.364;2023-03-23T16:45:36;15.20;66.70
69595;DHT22;56800;52.142;5.364;2023-03-23T16:48:04;15.30;67.00
69595;DHT22;56800;52.142;5.364;2023-03-23T16:50:32;15.20;66.90
69595;DHT22;56800;52.142;5.364;2023-03-23T16:52:58;15.20;67.00
69595;DHT22;56800;52.142;5.364;2023-03-23T16:55:26;15.10;66.90
69595;DHT22;56800;52.142;5.364;2023-03-23T16:57:54;15.10;67.20
69595;DHT22;56800;52.142;5.364;2023-03-23T17:00:39;15.10;67.50
69595;DHT22;56800;52.142;5.364;2023-03-23T17:03:06;15.10;67.30
69595;DHT22;56800;52.142;5.364;2023-03-23T17:05:35;15.10;67.10
69595;DHT22;56800;52.142;5.364;2023-03-23T17:08:03;15.10;68.10
69595;DHT22;56800;52.142;5.364;2023-03-23T17:10:30;15.10;67.60
69595;DHT22;56800;52.142;5.364;2023-03-23T17:12:57;15.00;67.60
69595;DHT22;56800;52.142;5.364;2023-03-23T17:15:24;15.00;67.50
69595;DHT22;56800;52.142;5.364;2023-03-23T17:17:52;15.00;67.30
69595;DHT22;56800;52.142;5.364;2023-03-23T17:20:20;15.00;67.00
69595;DHT22;56800;52.142;5.364;2023-03-23T17:22:47;15.00;67.00
69595;DHT22;56800;52.142;5.364;2023-03-23T17:25:14;15.00;67.10
69595;DHT22;56800;52.142;5.364;2023-03-23T17:27:40;15.00;67.20
69595;DHT22;56800;52.142;5.364;2023-03-23T17:30:08;15.00;67.10
69595;DHT22;56800;52.142;5.364;2023-03-23T17:32:36;14.90;67.00
69595;DHT22;56800;52.142;5.364;2023-03-23T17:35:04;14.90;67.20
69595;DHT22;56800;52.142;5.364;2023-03-23T17:37:32;14.90;68.10
69595;DHT22;56800;52.142;5.364;2023-03-23T17:39:59;14.90;67.40